createdAt,value
2023-05-19T00:01:00.599Z,100844.06
2023-05-19T00:03:28.126Z,100846.66
2023-05-19T00:05:59.056Z,100847.53
2023-05-19T00:08:29.182Z,100861.72
2023-05-19T00:10:57.088Z,100866.34
2023-05-19T00:13:24.659Z,100854.94
2023-05-19T00:15:53.789Z,100859.03
2023-05-19T00:18:21.200Z,100861.72
2023-05-19T00:20:48.833Z,100859.03
2023-05-19T00:23:15.857Z,100863.22
2023-05-19T00:25:43.489Z,100857.66
2023-05-19T00:28:10.525Z,100859.19
2023-05-19T00:30:37.949Z,100864.38
2023-05-19T00:33:05.097Z,100863.38
2023-05-19T00:35:32.657Z,100871.47
2023-05-19T00:37:59.704Z,100862.63
2023-05-19T00:40:28.444Z,100867.06
2023-05-19T00:42:55.565Z,100858.25
2023-05-19T00:45:23.079Z,100869.09
2023-05-19T00:47:50.194Z,100868.31
2023-05-19T00:50:17.702Z,100862.06
2023-05-19T00:52:44.760Z,100871.22
2023-05-19T00:55:14.311Z,100868.59
2023-05-19T00:57:42.961Z,100865.28
2023-05-19T01:00:11.670Z,100866.47
2023-05-19T01:02:40.154Z,100865.56
2023-05-19T01:05:08.988Z,100864.72
2023-05-19T01:07:36.893Z,100863.88
2023-05-19T01:10:04.930Z,100867.50
2023-05-19T01:12:31.942Z,100861.47
2023-05-19T01:14:59.480Z,100871.34
2023-05-19T01:17:40.573Z,100868.75
2023-05-19T01:20:13.681Z,100869.66
2023-05-19T01:22:59.509Z,100871.56
2023-05-19T01:25:42.870Z,100870.69
2023-05-19T01:28:32.920Z,100870.06
2023-05-19T01:31:01.519Z,100874.66
2023-05-19T01:33:31.180Z,100877.34
2023-05-19T01:36:03.165Z,100867.66
2023-05-19T01:38:30.650Z,100871.31
2023-05-19T01:40:58.860Z,100893.88
2023-05-19T01:43:27.552Z,100896.91
2023-05-19T01:45:55.798Z,100898.06
2023-05-19T01:48:23.435Z,100885.25
2023-05-19T01:50:51.459Z,100882.94
2023-05-19T01:53:18.651Z,100882.28
2023-05-19T01:55:49.762Z,100883.53
2023-05-19T01:58:46.399Z,100874.88
2023-05-19T02:01:27.217Z,100878.72
2023-05-19T02:04:31.731Z,100874.44
2023-05-19T02:07:10.014Z,100885.25
2023-05-19T02:09:52.504Z,100886.22
2023-05-19T02:12:25.073Z,100893.53
2023-05-19T02:15:05.238Z,100889.97
2023-05-19T02:17:36.466Z,100894.69
2023-05-19T02:20:05.894Z,100895.63
2023-05-19T02:22:33.515Z,100896.78
2023-05-19T02:25:00.585Z,100903.28
2023-05-19T02:27:28.266Z,100908.09
2023-05-19T02:29:55.527Z,100917.38
2023-05-19T02:32:22.967Z,100926.47
2023-05-19T02:34:50.190Z,100930.03
2023-05-19T02:37:17.846Z,100931.94
2023-05-19T02:39:45.276Z,100944.59
2023-05-19T02:42:14.791Z,100949.00
2023-05-19T02:44:41.858Z,100957.91
2023-05-19T02:47:10.798Z,100962.31
2023-05-19T02:49:38.073Z,100957.72
2023-05-19T02:52:07.044Z,100968.28
2023-05-19T02:54:34.492Z,100967.16
2023-05-19T02:57:02.235Z,100961.50
2023-05-19T02:59:29.627Z,100965.41
2023-05-19T03:02:01.967Z,100966.69
2023-05-19T03:04:30.142Z,100956.34
2023-05-19T03:06:57.968Z,100961.88
2023-05-19T03:09:26.193Z,100956.91
2023-05-19T03:11:53.817Z,100957.94
2023-05-19T03:14:24.385Z,100955.47
2023-05-19T03:16:53.606Z,100945.75
2023-05-19T03:19:21.744Z,100949.78
2023-05-19T03:21:49.751Z,100957.31
2023-05-19T03:24:16.961Z,100949.94
2023-05-19T03:26:46.097Z,100953.56
2023-05-19T03:29:14.515Z,100961.47
2023-05-19T03:31:43.084Z,100950.28
2023-05-19T03:34:10.508Z,100965.84
2023-05-19T03:36:40.014Z,100964.72
2023-05-19T03:39:07.257Z,100963.91
2023-05-19T03:41:34.577Z,100959.72
2023-05-19T03:44:01.723Z,100964.84
2023-05-19T03:46:30.547Z,100968.06
2023-05-19T03:48:59.280Z,100963.75
2023-05-19T03:54:49.152Z,100985.88
2023-05-19T03:57:16.672Z,100971.22
2023-05-19T03:59:44.197Z,100960.06
2023-05-19T04:05:29.234Z,100974.69
2023-05-19T04:07:56.790Z,100980.13
2023-05-19T04:10:26.832Z,100974.25
2023-05-19T04:13:11.703Z,100977.84
2023-05-19T04:15:39.006Z,100982.53
2023-05-19T04:18:06.502Z,100984.19
2023-05-19T04:20:34.070Z,100993.22
2023-05-19T04:23:01.908Z,100993.34
2023-05-19T04:25:29.104Z,100991.09
2023-05-19T04:27:57.999Z,100992.56
2023-05-19T04:30:25.370Z,100992.03
2023-05-19T04:35:51.819Z,100987.50
2023-05-19T04:38:24.294Z,100984.97
2023-05-19T04:40:52.149Z,100989.25
2023-05-19T04:43:19.828Z,100995.84
2023-05-19T04:48:31.258Z,100984.88
2023-05-19T04:51:08.629Z,100991.38
2023-05-19T04:53:37.204Z,100996.97
2023-05-19T04:56:05.246Z,100992.94
2023-05-19T04:58:33.436Z,100999.19
2023-05-19T05:01:01.739Z,100994.91
2023-05-19T05:03:34.672Z,100992.97
2023-05-19T05:06:01.932Z,101003.44
2023-05-19T05:08:30.366Z,101000.13
2023-05-19T05:10:58.226Z,101001.94
2023-05-19T05:13:26.097Z,101007.13
2023-05-19T05:15:54.591Z,101012.03
2023-05-19T05:18:22.531Z,101013.34
2023-05-19T05:20:51.166Z,101006.78
2023-05-19T05:23:19.552Z,101009.91
2023-05-19T05:25:47.833Z,101008.69
2023-05-19T05:28:16.860Z,101020.41
2023-05-19T05:30:45.088Z,101017.47
2023-05-19T05:33:12.948Z,101012.88
2023-05-19T05:35:41.096Z,101026.25
2023-05-19T05:38:11.712Z,101026.97
2023-05-19T05:40:41.973Z,101034.34
2023-05-19T05:43:10.482Z,101027.84
2023-05-19T05:45:38.129Z,101030.31
2023-05-19T05:48:06.119Z,101033.88
2023-05-19T05:50:34.192Z,101028.00
2023-05-19T05:53:03.094Z,101033.22
2023-05-19T05:55:31.078Z,101031.94
2023-05-19T05:57:59.600Z,101034.88
2023-05-19T06:00:28.676Z,101033.09
2023-05-19T06:02:57.613Z,101040.16
2023-05-19T06:05:25.787Z,101037.28
2023-05-19T06:07:54.294Z,101040.09
2023-05-19T06:10:22.344Z,101037.63
2023-05-19T06:12:49.998Z,101047.53
2023-05-19T06:15:18.545Z,101039.94
2023-05-19T06:17:52.779Z,101039.81
2023-05-19T06:20:20.306Z,101035.38
2023-05-19T06:22:50.294Z,101036.03
2023-05-19T06:28:00.048Z,101036.28
2023-05-19T06:30:27.226Z,101045.72
2023-05-19T06:32:57.833Z,101036.66
2023-05-19T06:35:25.214Z,101053.06
2023-05-19T06:37:57.477Z,101056.78
2023-05-19T06:40:24.940Z,101043.16
2023-05-19T06:42:55.026Z,101046.47
2023-05-19T06:45:24.030Z,101058.66
2023-05-19T06:48:03.836Z,101058.31
2023-05-19T06:50:31.402Z,101056.38
2023-05-19T06:52:59.339Z,101050.50
2023-05-19T06:55:26.458Z,101059.25
2023-05-19T06:57:54.013Z,101055.53
2023-05-19T07:00:23.095Z,101056.81
2023-05-19T07:02:51.792Z,101061.13
2023-05-19T07:05:19.205Z,101044.22
2023-05-19T07:07:46.760Z,101047.00
2023-05-19T07:10:13.903Z,101054.66
2023-05-19T07:15:27.028Z,101058.84
2023-05-19T07:18:03.144Z,101054.41
2023-05-19T07:20:30.857Z,101055.28
2023-05-19T07:22:58.639Z,101046.56
2023-05-19T07:28:09.465Z,101047.03
2023-05-19T07:30:36.576Z,101040.25
2023-05-19T07:33:04.118Z,101046.88
2023-05-19T07:36:40.606Z,101033.66
2023-05-19T07:42:07.825Z,101041.75
2023-05-19T07:44:35.305Z,101043.44
2023-05-19T07:47:02.429Z,101033.53
2023-05-19T07:49:30.242Z,101038.91
2023-05-19T07:51:57.912Z,101036.31
2023-05-19T07:54:25.469Z,101034.53
2023-05-19T07:56:53.264Z,101038.81
2023-05-19T07:59:20.775Z,101037.88
2023-05-19T08:01:48.098Z,101035.22
2023-05-19T08:04:15.848Z,101030.56
2023-05-19T08:06:44.579Z,101026.44
2023-05-19T08:09:12.226Z,101028.78
2023-05-19T08:11:39.554Z,101019.44
2023-05-19T08:14:07.081Z,101030.03
2023-05-19T08:16:34.123Z,101021.50
2023-05-19T08:19:04.278Z,101022.97
2023-05-19T08:21:34.823Z,101021.72
2023-05-19T08:24:03.377Z,101037.75
2023-05-19T08:26:30.541Z,101023.72
2023-05-19T08:28:58.140Z,101018.50
2023-05-19T08:31:25.563Z,101022.25
2023-05-19T08:33:53.437Z,101026.91
2023-05-19T08:36:22.151Z,101019.81
2023-05-19T08:38:49.667Z,101015.84
2023-05-19T08:41:17.356Z,101018.28
2023-05-19T08:43:45.812Z,101008.94
2023-05-19T08:46:15.174Z,101013.13
2023-05-19T08:48:45.546Z,101014.34
2023-05-19T08:51:15.779Z,101017.41
2023-05-19T08:53:51.130Z,101007.75
2023-05-19T08:56:26.578Z,101010.09
2023-05-19T08:58:56.697Z,101004.06
2023-05-19T09:01:24.297Z,101009.63
2023-05-19T09:03:52.523Z,101006.31
2023-05-19T09:06:19.667Z,101004.47
2023-05-19T09:08:48.340Z,100996.56
2023-05-19T09:11:20.425Z,100997.03
2023-05-19T09:13:48.902Z,100997.69
2023-05-19T09:16:17.660Z,100986.13
2023-05-19T09:18:56.639Z,100983.94
2023-05-19T09:21:33.565Z,100985.25
2023-05-19T09:24:07.427Z,100985.84
2023-05-19T09:26:38.745Z,100965.19
2023-05-19T09:29:16.712Z,100971.75
2023-05-19T09:31:51.228Z,100968.53
2023-05-19T09:34:19.678Z,100973.25
2023-05-19T09:36:53.502Z,100974.53
2023-05-19T09:39:24.949Z,100978.84
2023-05-19T09:41:58.587Z,100981.81
2023-05-19T09:44:50.992Z,100975.72
2023-05-19T09:47:18.298Z,100966.72
2023-05-19T09:49:49.241Z,100971.13
2023-05-19T09:52:18.406Z,100968.19
2023-05-19T09:54:46.102Z,100967.63
2023-05-19T09:57:13.779Z,100963.06
2023-05-19T09:59:41.452Z,100951.25
2023-05-19T10:02:16.849Z,100952.38
2023-05-19T10:04:48.760Z,100947.03
2023-05-19T10:07:17.761Z,100965.09
2023-05-19T10:09:46.270Z,100960.28
2023-05-19T10:12:13.479Z,100959.75
2023-05-19T10:14:41.503Z,100961.84
2023-05-19T10:17:09.954Z,100952.50
2023-05-19T10:19:38.822Z,100949.25
2023-05-19T10:22:07.183Z,100949.03
2023-05-19T10:24:35.233Z,100944.59
2023-05-19T10:27:12.799Z,100929.59
2023-05-19T10:29:46.097Z,100932.19
2023-05-19T10:32:22.297Z,100938.97
2023-05-19T10:34:59.421Z,100946.06
2023-05-19T10:40:26.824Z,100949.94
2023-05-19T10:43:25.438Z,100929.28
2023-05-19T10:45:55.012Z,100936.13
2023-05-19T10:48:23.867Z,100937.97
2023-05-19T10:50:56.773Z,100937.91
2023-05-19T10:53:51.213Z,100941.59
2023-05-19T10:57:03.032Z,100933.53
2023-05-19T10:59:32.900Z,100935.63
2023-05-19T11:02:10.144Z,100929.66
2023-05-19T11:04:54.483Z,100936.19
2023-05-19T11:07:22.537Z,100929.28
2023-05-19T11:09:52.789Z,100930.56
2023-05-19T11:12:26.187Z,100932.84
2023-05-19T11:14:54.894Z,100933.78
2023-05-19T11:17:25.423Z,100934.97
2023-05-19T11:19:57.057Z,100924.22
2023-05-19T11:22:26.641Z,100930.31
2023-05-19T11:24:57.507Z,100926.66
2023-05-19T11:27:31.726Z,100914.75
2023-05-19T11:30:13.967Z,100923.84
2023-05-19T11:32:44.479Z,100916.13
2023-05-19T11:35:23.717Z,100915.19
2023-05-19T11:40:49.839Z,100916.19
2023-05-19T11:43:18.387Z,100923.94
2023-05-19T11:45:46.976Z,100917.56
2023-05-19T11:48:16.134Z,100909.31
2023-05-19T11:50:44.293Z,100906.38
2023-05-19T11:53:17.093Z,100911.09
2023-05-19T11:55:49.640Z,100898.69
2023-05-19T11:58:17.599Z,100899.19
2023-05-19T12:00:49.809Z,100890.56
2023-05-19T12:03:28.847Z,100889.09
2023-05-19T12:05:57.231Z,100892.06
2023-05-19T12:08:25.629Z,100889.53
2023-05-19T12:10:53.644Z,100885.50
2023-05-19T12:13:23.097Z,100879.00
2023-05-19T12:15:53.378Z,100885.06
2023-05-19T12:18:30.812Z,100879.00
2023-05-19T12:20:59.349Z,100886.38
2023-05-19T12:23:27.370Z,100881.91
2023-05-19T12:25:56.811Z,100879.16
2023-05-19T12:28:24.147Z,100885.63
2023-05-19T12:30:58.590Z,100905.34
2023-05-19T12:33:26.865Z,100909.84
2023-05-19T12:35:55.570Z,100918.22
2023-05-19T12:38:23.099Z,100926.34
2023-05-19T12:40:51.378Z,100925.91
2023-05-19T12:43:23.411Z,100927.66
2023-05-19T12:45:54.192Z,100929.00
2023-05-19T12:48:24.607Z,100899.97
2023-05-19T12:50:56.010Z,100904.28
2023-05-19T12:53:27.719Z,100919.19
2023-05-19T12:55:56.558Z,100925.19
2023-05-19T12:58:24.299Z,100939.91
2023-05-19T13:00:56.410Z,100914.47
2023-05-19T13:03:23.719Z,100895.13
2023-05-19T13:05:54.124Z,100896.69
2023-05-19T13:08:24.205Z,100903.38
2023-05-19T13:10:52.288Z,100903.38
2023-05-19T13:13:21.215Z,100904.34
2023-05-19T13:15:49.553Z,100917.66
2023-05-19T13:18:17.484Z,100912.50
2023-05-19T13:20:46.603Z,100909.06
2023-05-19T13:23:14.671Z,100900.97
2023-05-19T13:25:46.934Z,100890.69
2023-05-19T13:28:29.784Z,100881.75
2023-05-19T13:31:12.008Z,100872.44
2023-05-19T13:33:40.928Z,100878.09
2023-05-19T13:36:08.345Z,100872.50
2023-05-19T13:38:35.887Z,100872.41
2023-05-19T13:41:07.232Z,100880.59
2023-05-19T13:43:41.103Z,100871.31
2023-05-19T13:46:08.645Z,100873.09
2023-05-19T13:48:36.641Z,100882.81
2023-05-19T13:51:03.949Z,100881.13
2023-05-19T13:53:33.062Z,100888.28
2023-05-19T13:56:01.739Z,100876.09
2023-05-19T13:58:30.710Z,100877.03
2023-05-19T14:01:03.321Z,100879.16
2023-05-19T14:03:39.869Z,100873.28
2023-05-19T14:06:16.076Z,100861.03
2023-05-19T14:08:44.846Z,100876.47
2023-05-19T14:11:24.928Z,100872.84
2023-05-19T14:13:53.068Z,100875.09
2023-05-19T14:16:22.220Z,100875.25
2023-05-19T14:18:52.917Z,100876.91
2023-05-19T14:21:20.268Z,100874.16
2023-05-19T14:23:48.049Z,100875.69
2023-05-19T14:26:16.330Z,100872.44
2023-05-19T14:28:44.026Z,100872.91
2023-05-19T14:31:14.914Z,100871.72
2023-05-19T14:33:44.270Z,100863.47
2023-05-19T14:36:11.975Z,100870.88
2023-05-19T14:38:39.694Z,100867.81
2023-05-19T14:41:07.510Z,100875.69
2023-05-19T14:43:35.804Z,100877.81
2023-05-19T14:46:03.591Z,100876.69
2023-05-19T14:48:31.234Z,100877.03
2023-05-19T14:50:58.485Z,100880.53
2023-05-19T14:56:11.729Z,100873.97
2023-05-19T14:58:39.270Z,100880.53
2023-05-19T15:01:06.430Z,100885.50
2023-05-19T15:03:33.935Z,100884.72
2023-05-19T15:06:01.520Z,100878.03
2023-05-19T15:08:29.158Z,100885.41
2023-05-19T15:11:17.473Z,100879.50
2023-05-19T15:13:45.971Z,100886.81
2023-05-19T15:16:18.051Z,100891.22
2023-05-19T15:18:49.735Z,100894.69
2023-05-19T15:21:18.291Z,100889.69
2023-05-19T15:24:22.486Z,100888.78
2023-05-19T15:26:52.001Z,100899.09
2023-05-19T15:29:20.831Z,100900.44
2023-05-19T15:31:52.085Z,100901.59
2023-05-19T15:34:21.042Z,100907.34
2023-05-19T15:36:48.377Z,100905.38
2023-05-19T15:39:16.308Z,100906.00
2023-05-19T15:47:09.741Z,100915.25
2023-05-19T15:49:39.665Z,100909.25
2023-05-19T15:52:11.254Z,100905.25
2023-05-19T15:54:45.420Z,100917.75
2023-05-19T15:57:13.686Z,100919.06
2023-05-19T15:59:41.174Z,100918.38
2023-05-19T16:02:08.770Z,100915.66
2023-05-19T16:04:37.879Z,100912.94
2023-05-19T16:07:05.223Z,100920.91
2023-05-19T16:09:32.701Z,100925.50
2023-05-19T16:11:59.998Z,100922.78
2023-05-19T16:14:31.197Z,100930.94
2023-05-19T16:16:58.557Z,100919.22
2023-05-19T16:19:26.925Z,100920.06
2023-05-19T16:21:54.144Z,100921.22
2023-05-19T16:24:25.452Z,100917.81
2023-05-19T16:26:53.953Z,100912.50
2023-05-19T16:29:21.778Z,100916.94
2023-05-19T16:31:49.161Z,100926.97
2023-05-19T16:34:16.750Z,100928.84
2023-05-19T16:36:44.202Z,100922.13
2023-05-19T16:39:11.984Z,100923.91
2023-05-19T16:41:39.089Z,100929.06
2023-05-19T16:44:06.486Z,100936.69
2023-05-19T16:46:34.299Z,100937.97
2023-05-19T16:49:01.581Z,100942.72
2023-05-19T16:51:28.787Z,100939.56
2023-05-19T16:54:01.459Z,100945.28
2023-05-19T16:56:33.394Z,100947.47
2023-05-19T16:59:01.149Z,100945.13
2023-05-19T17:01:28.300Z,100945.44
2023-05-19T17:03:56.088Z,100942.28
2023-05-19T17:06:23.238Z,100952.59
2023-05-19T17:08:51.027Z,100956.78
2023-05-19T17:11:18.743Z,100960.34
2023-05-19T17:13:46.889Z,100958.94
2023-05-19T17:16:14.121Z,100968.69
2023-05-19T17:18:44.936Z,100952.59
2023-05-19T17:21:12.227Z,100950.56
2023-05-19T17:23:39.692Z,100958.88
2023-05-19T17:26:06.847Z,100943.06
2023-05-19T17:28:34.787Z,100963.81
2023-05-19T17:31:09.073Z,100954.69
2023-05-19T17:33:40.139Z,100959.47
2023-05-19T17:36:08.216Z,100968.75
2023-05-19T17:38:40.340Z,100968.22
2023-05-19T17:41:10.115Z,100972.69
2023-05-19T17:43:38.416Z,100982.56
2023-05-19T17:46:06.708Z,100977.41
2023-05-19T17:48:34.807Z,100977.44
2023-05-19T17:53:40.718Z,100980.41
2023-05-19T17:56:11.291Z,100988.53
2023-05-19T17:58:39.623Z,100993.44
2023-05-19T18:01:07.133Z,100994.66
2023-05-19T18:03:35.430Z,100999.34
2023-05-19T18:06:03.064Z,101004.28
2023-05-19T18:08:31.608Z,100988.78
2023-05-19T18:11:08.160Z,101023.66
2023-05-19T18:13:40.040Z,101036.66
2023-05-19T18:16:07.429Z,101055.28
2023-05-19T18:18:37.546Z,101054.81
2023-05-19T18:21:04.778Z,101055.78
2023-05-19T18:23:36.547Z,101054.28
2023-05-19T18:26:03.965Z,101048.25
2023-05-19T18:28:31.837Z,101047.50
2023-05-19T18:31:04.772Z,101037.28
2023-05-19T18:33:33.384Z,101050.19
2023-05-19T18:36:01.641Z,101045.13
2023-05-19T18:38:29.213Z,101048.94
2023-05-19T18:40:57.591Z,101049.19
2023-05-19T18:43:30.328Z,101049.41
2023-05-19T18:46:00.512Z,101054.91
2023-05-19T18:48:28.262Z,101060.31
2023-05-19T18:50:55.887Z,101051.25
2023-05-19T18:53:23.435Z,101060.84
2023-05-19T18:55:50.734Z,101057.56
2023-05-19T18:58:18.826Z,101067.63
2023-05-19T19:00:46.066Z,101084.75
2023-05-19T19:03:14.453Z,101084.28
2023-05-19T19:05:42.168Z,101085.94
2023-05-19T19:08:09.853Z,101086.53
2023-05-19T19:10:40.543Z,101083.25
2023-05-19T19:13:08.170Z,101081.13
2023-05-19T19:15:35.334Z,101068.81
2023-05-19T19:18:02.900Z,101051.59
2023-05-19T19:20:31.937Z,101058.47
2023-05-19T19:23:02.275Z,101050.78
2023-05-19T19:25:29.447Z,101049.97
2023-05-19T19:27:58.048Z,101057.28
2023-05-19T19:30:28.564Z,101062.84
2023-05-19T19:32:57.285Z,101084.22
2023-05-19T19:35:26.749Z,101088.25
2023-05-19T19:38:00.187Z,101078.41
2023-05-19T19:40:34.565Z,101082.53
2023-05-19T19:43:07.696Z,101085.47
2023-05-19T19:48:38.081Z,101082.81
2023-05-19T19:51:07.829Z,101084.88
2023-05-19T19:53:46.177Z,101080.66
2023-05-19T19:56:38.174Z,101081.09
2023-05-19T19:59:05.265Z,101095.66
2023-05-19T20:01:33.963Z,101086.28
2023-05-19T20:04:09.478Z,101093.72
2023-05-19T20:06:38.859Z,101088.97
2023-05-19T20:09:07.939Z,101095.56
2023-05-19T20:11:36.124Z,101085.31
2023-05-19T20:14:03.138Z,101084.28
2023-05-19T20:16:30.756Z,101085.38
2023-05-19T20:18:58.914Z,101086.38
2023-05-19T20:21:26.342Z,101084.63
2023-05-19T20:23:53.886Z,101090.34
2023-05-19T20:26:22.561Z,101094.13
2023-05-19T20:28:49.618Z,101082.97
2023-05-19T20:31:17.056Z,101091.19
2023-05-19T20:33:44.318Z,101075.47
2023-05-19T20:36:11.771Z,101088.59
2023-05-19T20:38:41.308Z,101090.78
2023-05-19T20:41:09.051Z,101093.56
2023-05-19T20:43:36.462Z,101088.88
2023-05-19T20:46:04.153Z,101092.09
2023-05-19T20:48:34.375Z,101096.41
2023-05-19T20:51:03.085Z,101097.28
2023-05-19T20:53:33.270Z,101100.00
2023-05-19T20:56:00.935Z,101091.91
2023-05-19T20:58:30.439Z,101105.59
2023-05-19T21:01:02.903Z,101101.38
2023-05-19T21:03:30.739Z,101103.31
2023-05-19T21:05:58.152Z,101096.31
2023-05-19T21:08:26.420Z,101097.19
2023-05-19T21:10:54.298Z,101092.97
2023-05-19T21:13:25.456Z,101087.00
2023-05-19T21:15:52.990Z,101085.63
2023-05-19T21:18:20.108Z,101095.72
2023-05-19T21:20:47.658Z,101099.50
2023-05-19T21:23:14.726Z,101091.81
2023-05-19T21:25:44.574Z,101092.06
2023-05-19T21:28:14.002Z,101083.31
2023-05-19T21:30:41.811Z,101084.50
2023-05-19T21:33:09.313Z,101079.34
2023-05-19T21:35:37.000Z,101082.03
2023-05-19T21:38:15.681Z,101091.16
2023-05-19T21:41:15.167Z,101090.19
2023-05-19T21:43:45.199Z,101089.88
2023-05-19T21:46:13.133Z,101087.94
2023-05-19T21:48:40.962Z,101082.66
2023-05-19T21:51:11.122Z,101077.38
2023-05-19T21:53:38.795Z,101089.13
2023-05-19T21:56:06.396Z,101087.59
2023-05-19T21:58:33.455Z,101078.88
2023-05-19T22:01:00.834Z,101080.91
2023-05-19T22:03:32.110Z,101083.81
2023-05-19T22:05:59.632Z,101090.06
2023-05-19T22:08:28.450Z,101086.59
2023-05-19T22:10:57.441Z,101082.81
2023-05-19T22:13:24.601Z,101077.25
2023-05-19T22:15:52.043Z,101076.84
2023-05-19T22:18:19.565Z,101079.09
2023-05-19T22:20:46.962Z,101078.47
2023-05-19T22:23:15.240Z,101077.06
2023-05-19T22:25:42.601Z,101079.25
2023-05-19T22:28:09.658Z,101076.34
2023-05-19T22:30:41.136Z,101081.50
2023-05-19T22:33:09.603Z,101081.34
2023-05-19T22:35:37.623Z,101085.63
2023-05-19T22:38:08.871Z,101084.78
2023-05-19T22:40:39.722Z,101092.13
2023-05-19T22:43:09.976Z,101085.19
2023-05-19T22:45:37.789Z,101090.00
2023-05-19T22:48:05.548Z,101081.28
2023-05-19T22:50:35.536Z,101080.66
2023-05-19T22:53:02.752Z,101074.59
2023-05-19T22:55:30.071Z,101077.41
2023-05-19T22:57:57.162Z,101079.34
2023-05-19T23:00:24.585Z,101083.13
2023-05-19T23:02:51.637Z,101079.53
2023-05-19T23:05:19.589Z,101084.91
2023-05-19T23:07:46.639Z,101076.09
2023-05-19T23:10:13.967Z,101071.69
2023-05-19T23:12:41.382Z,101076.22
2023-05-19T23:15:09.787Z,101065.53
2023-05-19T23:17:37.489Z,101071.78
2023-05-19T23:20:05.957Z,101075.47
2023-05-19T23:22:33.057Z,101065.63
2023-05-19T23:25:02.006Z,101074.78
2023-05-19T23:27:29.061Z,101067.56
2023-05-19T23:29:56.455Z,101067.66
2023-05-19T23:32:23.623Z,101074.03
2023-05-19T23:34:51.215Z,101071.34
2023-05-19T23:37:18.260Z,101068.00
2023-05-19T23:39:46.318Z,101065.19
2023-05-19T23:42:13.396Z,101068.75
2023-05-19T23:44:40.846Z,101073.19
2023-05-19T23:47:08.069Z,101058.81
2023-05-19T23:49:35.900Z,101069.59
2023-05-19T23:52:03.194Z,101071.44
2023-05-19T23:54:31.182Z,101072.41
2023-05-19T23:56:59.052Z,101062.69
2023-05-19T23:59:26.820Z,101065.50
